Time;durP1;ratioP1;P1;durP2;ratioP2;P2;SDS_P1;SDS_P2;PMS_P1;PMS_P2;Temp;Humidity;BMP_temperature;BMP_pressure;BME280_temperature;BME280_humidity;BME280_pressure;Samples;Min_cycle;Max_cycle;Signal;HPM_P1;HPM_P2
2022/03/01 00:08:05;;;;;;;14.75;7.97;;;1.30;77.20;;;;;;5299462;23;20242;-79
2022/03/01 00:10:31;;;;;;;16.63;8.07;;;1.20;78.40;;;;;;4965661;29;20031;-79
2022/03/01 00:12:56;;;;;;;18.90;8.38;;;1.20;78.40;;;;;;4965664;29;20041;-79
2022/03/01 00:15:22;;;;;;;18.55;9.02;;;1.20;78.00;;;;;;4949015;28;20230;-79
2022/03/01 00:17:48;;;;;;;17.48;8.82;;;1.20;77.80;;;;;;4968651;29;20059;-80
2022/03/01 00:20:14;;;;;;;16.55;8.15;;;1.30;79.90;;;;;;4949925;29;20019;-78
2022/03/01 00:22:39;;;;;;;16.92;9.00;;;1.20;79.20;;;;;;4948873;29;20321;-79
2022/03/01 02:27:04;;;;;;;19.63;8.70;;;-0.50;88.80;;;;;;5660758;23;20334;-78
2022/03/01 02:29:31;;;;;;;19.63;9.30;;;-0.30;87.60;;;;;;4965258;29;20039;-78
2022/03/01 02:32:00;;;;;;;20.23;9.40;;;-0.30;87.60;;;;;;4947521;29;20268;-78
2022/03/01 02:34:26;;;;;;;19.58;9.18;;;-0.30;87.80;;;;;;4956076;29;20043;-77
2022/03/01 02:36:52;;;;;;;19.05;9.40;;;-0.30;87.20;;;;;;4975442;29;20039;-78
2022/03/01 02:39:18;;;;;;;16.67;8.70;;;-0.30;87.00;;;;;;4971458;29;20046;-78
2022/03/01 02:41:45;;;;;;;17.17;8.45;;;-0.30;87.90;;;;;;4972702;29;20035;-77
2022/03/01 02:44:11;;;;;;;17.35;9.05;;;-0.30;87.50;;;;;;4971945;29;20042;-78
2022/03/01 02:46:38;;;;;;;19.15;8.65;;;-0.40;87.30;;;;;;4974685;28;20093;-78
2022/03/01 02:49:05;;;;;;;16.63;8.90;;;-0.40;87.10;;;;;;4956893;29;20035;-79
2022/03/01 02:51:31;;;;;;;19.13;9.02;;;-0.40;87.90;;;;;;4969018;29;20309;-79
2022/03/01 02:53:57;;;;;;;16.55;9.02;;;-0.50;88.10;;;;;;4974445;29;20083;-78
2022/03/01 02:56:23;;;;;;;16.25;9.48;;;-0.50;88.50;;;;;;4970697;29;20039;-79
2022/03/01 02:58:55;;;;;;;17.42;8.20;;;-0.60;88.50;;;;;;4950798;29;20019;-80
2022/03/01 03:01:22;;;;;;;17.65;9.00;;;-0.60;90.00;;;;;;4950615;29;20054;-79
2022/03/01 03:03:49;;;;;;;17.17;8.73;;;-0.60;90.00;;;;;;4967972;29;20050;-78
2022/03/01 03:06:15;;;;;;;15.32;8.55;;;-0.70;90.00;;;;;;4950385;29;20027;-79
2022/03/01 03:08:41;;;;;;;18.55;9.02;;;-0.70;90.00;;;;;;4950805;29;20031;-79
2022/03/01 03:11:07;;;;;;;17.00;9.00;;;-0.80;90.20;;;;;;4950478;29;20037;-79
2022/03/01 03:13:33;;;;;;;15.77;8.52;;;-0.80;89.90;;;;;;4950750;29;20107;-79
2022/03/01 03:15:59;;;;;;;17.38;8.80;;;-0.70;90.10;;;;;;4950532;29;20039;-78
2022/03/01 03:18:25;;;;;;;19.40;8.93;;;-0.70;89.40;;;;;;4934877;29;20329;-79
2022/03/01 03:20:51;;;;;;;18.30;9.43;;;-0.60;89.50;;;;;;4967786;29;20039;-80
2022/03/01 03:23:16;;;;;;;16.58;8.93;;;-0.60;89.40;;;;;;4967632;29;20015;-79
2022/03/01 03:25:42;;;;;;;19.45;9.32;;;-0.50;88.70;;;;;;4950867;29;20110;-80
2022/03/01 03:28:08;;;;;;;16.55;8.65;;;-0.60;88.90;;;;;;4949839;29;20055;-79
2022/03/01 03:30:33;;;;;;;19.00;9.30;;;-0.60;88.70;;;;;;4948610;29;20333;-79
2022/03/01 03:32:59;;;;;;;20.05;9.77;;;-0.60;88.50;;;;;;4949711;29;20032;-81
2022/03/01 03:35:25;;;;;;;20.23;9.70;;;-0.60;88.50;;;;;;4946601;29;20075;-78
2022/03/01 03:37:51;;;;;;;19.83;9.27;;;-0.60;88.80;;;;;;4947792;29;20032;-78
2022/03/01 03:40:17;;;;;;;17.50;8.40;;;-0.70;89.20;;;;;;4930539;29;20035;-78
2022/03/01 03:42:44;;;;;;;18.58;9.25;;;-0.80;90.00;;;;;;4947407;29;20269;-78
2022/03/01 03:45:11;;;;;;;19.20;8.82;;;-0.90;90.30;;;;;;4945991;29;20032;-79
2022/03/01 03:47:37;;;;;;;15.60;8.50;;;-1.00;91.20;;;;;;4946958;29;20032;-78
2022/03/01 03:50:04;;;;;;;20.25;8.73;;;-1.10;90.80;;;;;;4946287;29;20324;-79
2022/03/01 03:52:30;;;;;;;20.92;9.45;;;-1.10;91.40;;;;;;4946885;29;20027;-78
2022/03/01 03:54:56;;;;;;;17.23;8.30;;;-1.10;91.40;;;;;;4947078;29;20198;-77
2022/03/01 03:57:21;;;;;;;18.05;8.65;;;-1.20;91.40;;;;;;4930200;29;20039;-78
2022/03/01 03:59:47;;;;;;;18.55;9.20;;;-1.10;91.70;;;;;;4948015;29;20027;-77
2022/03/01 04:02:13;;;;;;;18.33;9.02;;;-1.10;91.70;;;;;;4930439;29;20310;-77
2022/03/01 04:04:38;;;;;;;22.58;9.25;;;-1.10;91.50;;;;;;4946626;29;20322;-79
2022/03/01 04:07:05;;;;;;;20.38;9.85;;;-1.20;91.50;;;;;;4950553;29;20027;-78
2022/03/01 04:09:31;;;;;;;21.58;9.57;;;-1.20;91.70;;;;;;4931252;29;20020;-78
2022/03/01 04:11:57;;;;;;;21.27;10.50;;;-1.20;91.50;;;;;;4946537;29;20031;-78
2022/03/01 04:14:23;;;;;;;18.80;9.35;;;-1.20;91.60;;;;;;4945827;29;20225;-78
2022/03/01 04:16:48;;;;;;;17.38;9.13;;;-1.30;91.60;;;;;;4930540;29;20314;-77
2022/03/01 04:19:17;;;;;;;19.35;9.35;;;-1.20;91.40;;;;;;4929792;29;20047;-78
2022/03/01 04:21:43;;;;;;;25.75;9.77;;;-1.20;91.40;;;;;;4946488;29;20019;-78
2022/03/01 04:24:09;;;;;;;25.42;9.70;;;-1.30;91.70;;;;;;4945608;29;20038;-78
2022/03/01 04:26:35;;;;;;;21.42;9.63;;;-1.30;91.70;;;;;;4946148;29;20036;-78
2022/03/01 04:29:00;;;;;;;21.05;10.48;;;-1.40;91.40;;;;;;4946500;29;20115;-78
2022/03/01 04:31:26;;;;;;;20.65;10.52;;;-1.40;91.60;;;;;;4945597;29;20381;-77
2022/03/01 04:33:54;;;;;;;19.05;9.65;;;-1.40;91.70;;;;;;4929989;29;20107;-78
2022/03/01 04:36:20;;;;;;;16.45;7.47;;;-1.50;91.90;;;;;;4929923;29;20173;-78
2022/03/01 04:38:45;;;;;;;20.77;9.30;;;-1.40;91.80;;;;;;4914748;29;20312;-78
2022/03/01 04:41:11;;;;;;;24.00;10.07;;;-1.40;92.00;;;;;;4946940;29;20238;-77
2022/03/01 04:43:37;;;;;;;21.33;9.10;;;-1.40;91.80;;;;;;4929852;29;20055;-78
2022/03/01 04:46:04;;;;;;;16.63;8.52;;;-1.60;91.80;;;;;;4913787;29;20187;-78
2022/03/01 04:48:30;;;;;;;21.35;9.73;;;-1.50;92.20;;;;;;4946595;29;20027;-78
2022/03/01 04:50:56;;;;;;;24.23;10.70;;;-1.60;92.30;;;;;;4945501;29;20174;-78
2022/03/01 04:53:23;;;;;;;22.08;9.52;;;-1.50;92.50;;;;;;4928807;29;20031;-77
2022/03/01 04:55:49;;;;;;;22.60;10.35;;;-1.50;92.30;;;;;;4914044;29;20051;-78
2022/03/01 04:58:15;;;;;;;23.58;9.57;;;-1.50;92.30;;;;;;4929422;29;20026;-77
2022/03/01 05:00:41;;;;;;;25.60;10.65;;;-1.60;92.10;;;;;;4929625;29;20050;-76
2022/03/01 05:03:07;;;;;;;23.88;10.95;;;-1.60;92.10;;;;;;4929291;29;20027;-78
2022/03/01 05:05:33;;;;;;;23.58;10.05;;;-1.50;92.30;;;;;;4929902;29;20075;-78
2022/03/01 05:07:59;;;;;;;32.53;11.65;;;-1.60;91.90;;;;;;4946449;29;20063;-79
2022/03/01 14:39:40;;;;;;;10.70;6.40;;;23.70;36.90;;;;;;5682432;23;20043;-78
2022/03/01 14:42:08;;;;;;;9.07;6.40;;;22.80;38.20;;;;;;4940825;28;20353;-83
2022/03/01 14:44:37;;;;;;;9.32;6.00;;;21.50;37.30;;;;;;4929591;29;20070;-79
2022/03/01 14:47:15;;;;;;;8.23;5.70;;;21.20;39.40;;;;;;4928635;29;20036;-81
2022/03/01 14:53:26;;;;;;;7.88;5.80;;;20.00;38.90;;;;;;4946618;29;20039;-78
2022/03/01 14:55:55;;;;;;;8.93;5.68;;;20.60;40.80;;;;;;4945618;29;20019;-80
2022/03/01 14:58:24;;;;;;;9.77;6.18;;;20.60;40.00;;;;;;4927945;29;20047;-77
2022/03/01 15:00:52;;;;;;;9.23;5.95;;;20.70;38.20;;;;;;4944248;29;20031;-80
2022/03/01 15:03:19;;;;;;;8.70;6.10;;;20.80;38.20;;;;;;4928929;29;20024;-81
2022/03/01 15:05:51;;;;;;;9.55;6.30;;;20.40;37.40;;;;;;4943880;29;20032;-80
2022/03/01 15:08:16;;;;;;;9.15;6.10;;;20.40;38.10;;;;;;4924539;29;20040;-79
2022/03/01 15:10:48;;;;;;;8.02;5.53;;;20.60;37.90;;;;;;4943762;29;20028;-78
2022/03/01 15:13:14;;;;;;;9.27;6.18;;;21.10;40.70;;;;;;4914672;29;20048;-81
2022/03/01 15:15:49;;;;;;;11.63;6.50;;;21.20;39.90;;;;;;4943773;29;20340;-78
2022/03/01 15:18:18;;;;;;;8.88;6.15;;;20.40;38.70;;;;;;4946707;29;20027;-80
2022/03/01 15:20:46;;;;;;;9.60;6.30;;;20.10;38.80;;;;;;4947188;29;20365;-79
2022/03/01 15:23:18;;;;;;;9.03;6.70;;;20.10;40.50;;;;;;4947528;29;20091;-79
2022/03/01 15:30:04;;;;;;;10.32;6.10;;;20.10;43.50;;;;;;4945874;29;20043;-77
2022/03/01 15:32:30;;;;;;;7.63;5.70;;;21.60;42.80;;;;;;4942249;29;20071;-80
2022/03/01 15:35:15;;;;;;;10.40;6.90;;;21.30;38.30;;;;;;4943150;29;20028;-78
2022/03/01 15:37:59;;;;;;;9.40;6.40;;;19.40;38.00;;;;;;4944026;29;20028;-79
2022/03/01 15:43:50;;;;;;;10.18;6.95;;;19.50;40.30;;;;;;4925423;29;20079;-79
2022/03/01 15:46:45;;;;;;;9.27;6.32;;;21.20;41.20;;;;;;4923687;29;20091;-80
2022/03/01 15:49:32;;;;;;;8.05;6.07;;;21.00;40.60;;;;;;4886665;29;20041;-84
2022/03/01 15:51:58;;;;;;;10.55;6.45;;;21.80;37.30;;;;;;4871607;29;20105;-81
2022/03/01 15:54:44;;;;;;;8.05;6.00;;;22.70;37.30;;;;;;4890890;29;20037;-79
2022/03/01 15:57:11;;;;;;;9.07;5.95;;;21.50;38.50;;;;;;4890178;29;20427;-78
2022/03/01 15:59:46;;;;;;;9.15;6.15;;;20.70;39.70;;;;;;4890111;29;20029;-78
2022/03/01 16:02:12;;;;;;;11.18;6.60;;;19.70;40.30;;;;;;4889237;29;20112;-81
2022/03/01 16:04:38;;;;;;;11.07;6.43;;;18.80;43.20;;;;;;4889510;29;20029;-79
2022/03/01 16:07:07;;;;;;;9.50;6.57;;;18.40;41.10;;;;;;4884034;29;20355;-79
2022/03/01 16:13:07;;;;;;;9.55;6.15;;;19.40;42.60;;;;;;4887389;29;20153;-78
2022/03/01 16:46:09;;;;;;;11.23;6.55;;;11.10;51.30;;;;;;5882258;23;20037;-79
2022/03/01 16:48:35;;;;;;;11.30;6.50;;;10.80;53.90;;;;;;4911300;29;20076;-78
2022/03/01 16:51:01;;;;;;;11.48;6.45;;;10.40;54.10;;;;;;4928463;29;20667;-77
2022/03/01 16:53:30;;;;;;;9.70;6.03;;;10.20;52.90;;;;;;4927853;29;20043;-79
2022/03/01 16:58:48;;;;;;;10.68;5.93;;;9.90;55.70;;;;;;4927893;29;20148;-80
2022/03/01 17:01:26;;;;;;;11.07;6.47;;;9.90;57.40;;;;;;4913343;29;20040;-78
2022/03/01 17:04:08;;;;;;;11.15;6.80;;;9.80;57.00;;;;;;4921546;29;20087;-79
2022/03/01 17:06:42;;;;;;;11.68;6.57;;;9.50;55.70;;;;;;4908042;29;20033;-79
2022/03/01 17:09:19;;;;;;;10.98;6.88;;;9.40;56.50;;;;;;4908658;29;20059;-78
2022/03/01 17:12:10;;;;;;;12.68;6.93;;;9.30;57.80;;;;;;4886544;29;20214;-79
2022/03/01 17:14:36;;;;;;;11.10;6.35;;;9.30;58.60;;;;;;4912304;29;20049;-83
2022/03/01 17:17:05;;;;;;;10.82;6.35;;;9.30;60.90;;;;;;4895894;29;20037;-81
2022/03/01 17:19:45;;;;;;;10.77;6.40;;;9.30;59.40;;;;;;4894459;29;20141;-79
2022/03/01 17:22:17;;;;;;;10.95;6.00;;;9.10;60.90;;;;;;4893530;29;20036;-80
2022/03/01 17:24:47;;;;;;;12.63;7.13;;;8.90;62.20;;;;;;4892424;29;20055;-78
2022/03/01 17:27:17;;;;;;;16.60;7.97;;;8.70;57.20;;;;;;4891983;29;20103;-77
2022/03/01 17:30:01;;;;;;;17.38;11.93;;;8.30;57.00;;;;;;4908523;29;20040;-78
2022/03/01 17:32:32;;;;;;;19.30;13.13;;;8.00;58.80;;;;;;4880950;29;20042;-77
2022/03/01 17:35:11;;;;;;;24.08;13.70;;;7.80;59.60;;;;;;4907977;29;20047;-78
2022/03/01 17:41:11;;;;;;;13.45;7.75;;;7.40;61.70;;;;;;4907472;29;20033;-77
2022/03/01 17:43:49;;;;;;;16.17;8.65;;;7.30;62.10;;;;;;4907848;29;20032;-77
2022/03/01 17:46:15;;;;;;;20.40;10.77;;;7.10;62.20;;;;;;4889782;29;20044;-80
2022/03/01 17:48:41;;;;;;;24.48;15.13;;;6.80;61.80;;;;;;4907214;29;20041;-78
2022/03/01 17:54:24;;;;;;;79.60;29.75;;;6.50;64.20;;;;;;4907241;29;20051;-79
2022/03/01 17:56:50;;;;;;;30.63;13.60;;;6.20;63.30;;;;;;4907265;29;20215;-79
2022/03/01 17:59:19;;;;;;;23.30;10.57;;;6.20;65.60;;;;;;4890109;29;20025;-78
2022/03/01 18:01:47;;;;;;;22.88;10.95;;;6.00;64.00;;;;;;4906951;29;20112;-78
2022/03/01 18:04:38;;;;;;;21.75;11.00;;;5.90;64.50;;;;;;4906589;29;20024;-76
2022/03/01 18:07:04;;;;;;;20.17;9.75;;;5.90;63.60;;;;;;4889824;29;20044;-77
2022/03/01 18:09:42;;;;;;;23.70;11.43;;;5.70;63.20;;;;;;4898915;29;20028;-76
2022/03/01 18:12:23;;;;;;;19.95;10.55;;;5.60;64.70;;;;;;4905143;29;20254;-75
2022/03/01 18:14:53;;;;;;;35.95;16.60;;;5.60;67.10;;;;;;4915121;29;20044;-78
2022/03/01 18:17:39;;;;;;;39.33;16.52;;;5.50;64.40;;;;;;4912482;29;20191;-79
2022/03/01 18:20:06;;;;;;;33.50;15.10;;;5.50;64.20;;;;;;4897494;29;20035;-77
2022/03/01 18:26:10;;;;;;;17.52;9.98;;;5.40;63.40;;;;;;4908308;29;20096;-76
2022/03/01 18:28:39;;;;;;;20.00;9.25;;;5.50;62.70;;;;;;4907245;29;20083;-80
2022/03/01 18:31:06;;;;;;;14.93;8.43;;;5.40;62.80;;;;;;4906181;29;20039;-77
2022/03/01 18:33:33;;;;;;;15.60;7.97;;;5.50;62.70;;;;;;4891580;29;20063;-78
2022/03/01 18:36:05;;;;;;;13.15;7.97;;;5.60;62.80;;;;;;4914591;29;20013;-77
2022/03/01 18:38:47;;;;;;;14.10;8.52;;;5.40;62.70;;;;;;4920192;29;20064;-77
2022/03/01 18:43:58;;;;;;;14.70;8.25;;;5.30;63.10;;;;;;4944553;29;20322;-77
2022/03/01 18:46:23;;;;;;;16.58;8.73;;;5.20;63.60;;;;;;4945859;29;20039;-78
2022/03/01 18:48:50;;;;;;;14.20;8.38;;;5.10;63.90;;;;;;4932052;29;20035;-78
2022/03/01 18:51:16;;;;;;;21.83;11.35;;;5.10;64.00;;;;;;4934708;29;20087;-79
2022/03/01 18:53:42;;;;;;;69.50;26.15;;;4.90;64.50;;;;;;4957161;29;20055;-78
2022/03/01 18:56:14;;;;;;;56.88;20.63;;;4.90;64.90;;;;;;4957182;29;20040;-78
2022/03/01 18:58:43;;;;;;;50.55;20.90;;;4.80;65.00;;;;;;4953174;29;20024;-80
2022/03/01 19:01:10;;;;;;;33.03;14.02;;;4.70;65.20;;;;;;4928954;29;20032;-79
2022/03/01 19:03:43;;;;;;;28.83;13.37;;;4.80;65.80;;;;;;4941106;29;20028;-78
2022/03/01 19:09:19;;;;;;;42.00;17.25;;;4.70;65.70;;;;;;4925308;29;20075;-76
2022/03/01 19:11:45;;;;;;;35.78;15.52;;;4.60;66.70;;;;;;4940586;29;20028;-80
2022/03/01 19:14:11;;;;;;;34.90;13.93;;;4.50;68.00;;;;;;4939639;29;20051;-79
2022/03/01 19:16:38;;;;;;;23.98;11.13;;;4.40;67.70;;;;;;4925250;29;20234;-79
2022/03/01 19:19:06;;;;;;;18.38;9.18;;;4.40;68.20;;;;;;4939811;29;20032;-78
2022/03/01 19:21:32;;;;;;;18.70;9.38;;;4.40;70.10;;;;;;4939995;29;20028;-79
2022/03/01 19:23:59;;;;;;;19.58;10.32;;;4.20;68.40;;;;;;4908129;29;20099;-79
2022/03/01 19:26:25;;;;;;;26.63;11.48;;;4.10;68.70;;;;;;4908254;29;20027;-81
2022/03/01 19:28:52;;;;;;;48.13;18.98;;;4.10;69.80;;;;;;4926825;29;20207;-79
2022/03/01 19:31:19;;;;;;;52.55;20.27;;;4.00;70.10;;;;;;4942751;29;20044;-78
2022/03/01 19:33:45;;;;;;;58.72;21.35;;;3.90;69.30;;;;;;4911943;29;20203;-78
2022/03/01 19:36:39;;;;;;;48.42;19.20;;;4.00;70.80;;;;;;4940390;29;20027;-79
2022/03/01 19:39:20;;;;;;;40.45;17.38;;;3.90;69.30;;;;;;4928342;29;20215;-80
2022/03/01 19:42:39;;;;;;;37.15;15.35;;;3.90;70.00;;;;;;4945072;29;20046;-80
2022/03/01 19:45:15;;;;;;;89.07;34.03;;;3.80;71.20;;;;;;4926364;29;20276;-79
2022/03/01 19:47:52;;;;;;;65.78;28.23;;;3.80;70.20;;;;;;4943359;29;20048;-80
2022/03/01 19:50:24;;;;;;;44.58;19.38;;;3.70;72.30;;;;;;4928108;29;20028;-79
2022/03/01 19:53:00;;;;;;;39.72;16.52;;;3.70;72.30;;;;;;4930369;29;20054;-79
2022/03/01 19:55:46;;;;;;;33.40;14.30;;;3.70;71.70;;;;;;4928923;29;20028;-79
2022/03/01 19:58:12;;;;;;;30.27;13.57;;;3.70;72.10;;;;;;4927921;29;20107;-81
2022/03/01 20:00:41;;;;;;;21.17;10.52;;;3.80;74.80;;;;;;4911208;29;20043;-82
2022/03/01 20:03:08;;;;;;;23.42;11.07;;;3.90;72.70;;;;;;4911087;29;20020;-81
2022/03/01 20:05:36;;;;;;;19.40;10.70;;;3.80;71.70;;;;;;4911903;29;20055;-82
2022/03/01 20:08:03;;;;;;;18.95;9.98;;;3.80;74.00;;;;;;4940335;29;20036;-81
2022/03/01 20:14:17;;;;;;;19.13;9.07;;;3.80;74.40;;;;;;4982292;23;20129;-82
2022/03/01 20:16:43;;;;;;;17.63;8.70;;;3.70;75.50;;;;;;4948918;29;20054;-82
2022/03/01 20:19:21;;;;;;;24.00;12.10;;;3.50;75.70;;;;;;4964775;29;20306;-82
2022/03/01 20:21:47;;;;;;;22.45;11.23;;;3.50;75.50;;;;;;4966370;29;20031;-79
2022/03/01 20:24:14;;;;;;;20.02;10.63;;;3.30;74.00;;;;;;4948746;29;20049;-81
2022/03/01 20:30:27;;;;;;;48.63;19.77;;;3.00;75.70;;;;;;4965789;28;20054;-83
2022/03/01 20:32:57;;;;;;;34.05;17.00;;;2.90;77.30;;;;;;4965284;29;20028;-81
2022/03/01 20:35:23;;;;;;;25.48;12.48;;;2.80;77.30;;;;;;4962825;28;20046;-82
2022/03/01 20:37:49;;;;;;;21.67;12.02;;;2.70;78.70;;;;;;4948877;29;20242;-81
2022/03/01 20:40:15;;;;;;;21.42;11.35;;;2.60;77.20;;;;;;4948727;29;20087;-81
2022/03/01 20:42:47;;;;;;;20.85;11.70;;;2.50;77.50;;;;;;4948643;29;20053;-81
2022/03/01 20:52:31;;;;;;;17.90;10.68;;;2.20;78.60;;;;;;4954809;23;20416;-80
2022/03/01 20:54:57;;;;;;;18.25;10.68;;;2.00;80.80;;;;;;4946848;29;20058;-81
2022/03/01 20:57:23;;;;;;;18.10;10.23;;;2.00;80.70;;;;;;4929082;29;20028;-80
2022/03/01 20:59:49;;;;;;;23.23;10.88;;;2.00;80.40;;;;;;4929908;29;20027;-81
2022/03/01 21:02:15;;;;;;;20.48;10.32;;;2.00;80.00;;;;;;4945824;28;20036;-80
2022/03/01 21:08:29;;;;;;;21.50;11.00;;;1.90;80.30;;;;;;4929425;28;20099;-81
2022/03/01 21:10:54;;;;;;;17.23;10.20;;;2.00;82.60;;;;;;4917678;29;20028;-80
2022/03/01 21:13:20;;;;;;;22.60;11.85;;;2.00;81.80;;;;;;4923970;29;20028;-81
2022/03/01 21:19:33;;;;;;;24.30;12.20;;;1.80;82.30;;;;;;4927016;29;20143;-80
2022/03/01 21:21:59;;;;;;;53.55;22.70;;;1.70;82.60;;;;;;4926187;29;20036;-80
2022/03/01 21:24:28;;;;;;;47.88;21.60;;;1.70;82.70;;;;;;4926961;29;20028;-80
2022/03/01 21:26:54;;;;;;;57.85;26.85;;;1.60;82.70;;;;;;4926280;29;20028;-81
2022/03/01 21:29:20;;;;;;;34.38;16.33;;;1.50;82.60;;;;;;4925659;29;20031;-82
2022/03/01 21:31:47;;;;;;;32.95;15.35;;;1.40;82.40;;;;;;4933632;29;20040;-82
2022/03/01 21:34:13;;;;;;;28.48;15.52;;;1.30;82.90;;;;;;4933335;29;20274;-80
2022/03/01 21:36:39;;;;;;;40.42;19.48;;;1.20;83.90;;;;;;4927196;29;20035;-81
2022/03/01 21:39:05;;;;;;;31.35;16.30;;;1.20;83.50;;;;;;4910246;29;20055;-80
2022/03/01 21:41:33;;;;;;;37.03;16.95;;;1.20;83.30;;;;;;4926959;29;20027;-80
2022/03/01 21:43:59;;;;;;;26.85;13.95;;;1.10;84.40;;;;;;4927229;29;20422;-79
2022/03/01 21:46:25;;;;;;;25.75;13.10;;;1.00;84.50;;;;;;4924586;29;20036;-79
2022/03/01 21:48:51;;;;;;;26.55;12.68;;;1.00;85.20;;;;;;4925945;29;20310;-79
2022/03/01 21:51:17;;;;;;;28.75;13.75;;;1.10;85.80;;;;;;4926822;29;20059;-80
2022/03/01 21:53:49;;;;;;;26.27;13.10;;;1.30;85.50;;;;;;4927068;29;20048;-79
2022/03/01 21:56:48;;;;;;;23.02;12.82;;;1.20;85.00;;;;;;4926528;29;20050;-81
2022/03/01 21:59:17;;;;;;;26.67;12.33;;;1.20;85.90;;;;;;4926655;29;20028;-81
2022/03/01 22:01:49;;;;;;;21.65;11.20;;;1.20;84.40;;;;;;4925252;29;20456;-80
2022/03/01 22:04:17;;;;;;;21.10;11.15;;;1.20;86.20;;;;;;4926472;29;20032;-79
2022/03/01 22:07:27;;;;;;;20.58;10.90;;;1.20;85.60;;;;;;4925885;29;20020;-79
2022/03/01 22:14:13;;;;;;;20.98;11.10;;;1.20;86.60;;;;;;4924277;29;20035;-78
2022/03/01 22:16:43;;;;;;;23.05;11.63;;;1.20;87.30;;;;;;4920436;29;20060;-80
2022/03/01 22:19:10;;;;;;;20.30;10.93;;;1.00;86.00;;;;;;4916421;29;20123;-80
2022/03/01 22:21:36;;;;;;;21.00;11.95;;;1.10;86.40;;;;;;4910671;29;20211;-80
2022/03/01 22:24:44;;;;;;;20.63;11.70;;;1.10;86.60;;;;;;4907627;29;20068;-81
2022/03/01 22:27:42;;;;;;;20.27;11.82;;;1.20;86.30;;;;;;4907124;29;20025;-81
2022/03/01 22:30:15;;;;;;;21.40;11.57;;;1.00;86.00;;;;;;4888999;29;20120;-81
2022/03/01 22:32:52;;;;;;;20.45;10.93;;;0.90;86.70;;;;;;4886524;29;20260;-81
2022/03/01 22:35:21;;;;;;;24.63;11.57;;;0.90;86.40;;;;;;4871260;29;20112;-80
2022/03/01 22:37:50;;;;;;;19.40;11.38;;;0.90;87.10;;;;;;4872058;29;20049;-82
2022/03/01 22:40:27;;;;;;;24.02;11.55;;;0.90;87.00;;;;;;4887243;29;20029;-80
2022/03/01 22:42:54;;;;;;;20.77;11.33;;;0.90;87.10;;;;;;4888792;29;20124;-79
2022/03/01 22:45:19;;;;;;;19.85;11.15;;;0.80;86.70;;;;;;4887451;29;20029;-79
2022/03/01 22:47:53;;;;;;;24.60;12.23;;;0.80;87.00;;;;;;4871534;29;20081;-79
2022/03/01 22:50:43;;;;;;;30.08;14.55;;;0.80;86.40;;;;;;4871233;29;20052;-80
2022/03/01 22:53:34;;;;;;;27.98;13.23;;;0.70;86.40;;;;;;4888401;29;20064;-80
2022/03/01 22:56:00;;;;;;;26.27;11.95;;;0.70;87.10;;;;;;4888592;29;20033;-81
2022/03/01 22:58:29;;;;;;;24.92;11.43;;;0.70;87.00;;;;;;4888453;29;20379;-79
2022/03/01 23:01:04;;;;;;;21.10;11.48;;;0.70;86.30;;;;;;4889539;29;20223;-80
2022/03/01 23:03:33;;;;;;;24.95;11.32;;;0.70;86.80;;;;;;4888585;29;20528;-80
2022/03/01 23:05:58;;;;;;;20.85;12.02;;;0.70;86.70;;;;;;4892308;29;20021;-79
2022/03/01 23:08:49;;;;;;;20.83;11.48;;;0.70;86.40;;;;;;4891531;29;20029;-80
2022/03/01 23:11:16;;;;;;;21.40;11.30;;;0.60;86.40;;;;;;4890429;29;20246;-80
2022/03/01 23:13:46;;;;;;;19.13;10.30;;;0.70;87.40;;;;;;4891794;29;20039;-80
2022/03/01 23:16:16;;;;;;;27.45;13.27;;;0.50;86.50;;;;;;4890001;29;20041;-79
2022/03/01 23:18:48;;;;;;;28.40;14.18;;;0.40;87.70;;;;;;4892057;29;20319;-80
2022/03/01 23:21:19;;;;;;;25.45;12.95;;;0.30;87.90;;;;;;4874868;29;20311;-80
2022/03/01 23:24:10;;;;;;;25.05;13.35;;;0.40;88.60;;;;;;4892003;29;20057;-79
2022/03/01 23:27:47;;;;;;;27.60;13.98;;;0.30;88.40;;;;;;4874728;29;20040;-80
2022/03/01 23:30:13;;;;;;;27.58;13.63;;;0.50;88.50;;;;;;4891587;29;20036;-79
2022/03/01 23:32:40;;;;;;;26.77;12.40;;;0.50;88.70;;;;;;4874631;29;20062;-79
2022/03/01 23:35:45;;;;;;;26.25;12.82;;;0.50;88.40;;;;;;4887373;29;20300;-79
2022/03/01 23:38:15;;;;;;;25.70;13.05;;;0.60;88.70;;;;;;4891382;29;20068;-79
2022/03/01 23:44:21;;;;;;;23.15;11.68;;;0.40;88.10;;;;;;4890793;29;20107;-80
2022/03/01 23:46:53;;;;;;;20.98;11.50;;;0.40;88.30;;;;;;4891414;29;20107;-81
2022/03/01 23:49:19;;;;;;;23.70;12.32;;;0.50;88.70;;;;;;4891459;29;20028;-80
2022/03/01 23:51:52;;;;;;;22.25;12.32;;;0.30;88.00;;;;;;4882329;29;20052;-80
2022/03/01 23:54:19;;;;;;;23.23;12.48;;;0.30;88.20;;;;;;4909101;29;20155;-79
2022/03/01 23:56:46;;;;;;;23.35;11.55;;;0.20;88.70;;;;;;4894153;29;20088;-80
2022/03/01 23:59:25;;;;;;;22.80;11.75;;;0.20;88.90;;;;;;4909505;29;20036;-80
